sensor_id;sensor_type;location;lat;lon;timestamp;P1;durP1;ratioP1;P2;durP2;ratioP2
64291;SDS011;50628;51.008;13.658;2023-05-07T00:01:10;21.20;;;16.93;;
64291;SDS011;50628;51.008;13.658;2023-05-07T00:06:11;19.83;;;17.00;;
64291;SDS011;50628;51.008;13.658;2023-05-07T00:11:15;26.43;;;18.50;;
64291;SDS011;50628;51.008;13.658;2023-05-07T00:16:17;25.40;;;20.10;;
64291;SDS011;50628;51.008;13.658;2023-05-07T00:21:19;24.03;;;20.10;;
64291;SDS011;50628;51.008;13.658;2023-05-07T00:26:23;20.33;;;17.30;;
64291;SDS011;50628;51.008;13.658;2023-05-07T00:31:25;22.77;;;18.57;;
64291;SDS011;50628;51.008;13.658;2023-05-07T00:36:27;24.13;;;17.83;;
64291;SDS011;50628;51.008;13.658;2023-05-07T00:41:31;18.77;;;15.40;;
64291;SDS011;50628;51.008;13.658;2023-05-07T00:46:33;23.43;;;19.20;;
64291;SDS011;50628;51.008;13.658;2023-05-07T00:51:35;21.00;;;17.23;;
64291;SDS011;50628;51.008;13.658;2023-05-07T00:56:38;24.07;;;20.00;;
64291;SDS011;50628;51.008;13.658;2023-05-07T01:01:41;26.37;;;20.23;;
64291;SDS011;50628;51.008;13.658;2023-05-07T01:06:43;25.33;;;21.00;;
64291;SDS011;50628;51.008;13.658;2023-05-07T01:11:48;28.23;;;23.60;;
64291;SDS011;50628;51.008;13.658;2023-05-07T01:16:52;29.73;;;23.77;;
64291;SDS011;50628;51.008;13.658;2023-05-07T01:22:06;26.97;;;22.80;;
64291;SDS011;50628;51.008;13.658;2023-05-07T01:27:21;26.07;;;22.30;;
64291;SDS011;50628;51.008;13.658;2023-05-07T01:32:27;30.17;;;23.30;;
64291;SDS011;50628;51.008;13.658;2023-05-07T01:37:33;27.27;;;22.10;;
64291;SDS011;50628;51.008;13.658;2023-05-07T01:42:37;24.90;;;21.77;;
64291;SDS011;50628;51.008;13.658;2023-05-07T01:47:39;27.60;;;21.53;;
64291;SDS011;50628;51.008;13.658;2023-05-07T01:52:41;23.07;;;19.93;;
64291;SDS011;50628;51.008;13.658;2023-05-07T01:57:44;23.07;;;19.17;;
64291;SDS011;50628;51.008;13.658;2023-05-07T02:02:46;24.30;;;20.37;;
64291;SDS011;50628;51.008;13.658;2023-05-07T02:08:03;23.50;;;19.13;;
64291;SDS011;50628;51.008;13.658;2023-05-07T02:13:07;22.20;;;18.57;;
64291;SDS011;50628;51.008;13.658;2023-05-07T02:18:09;23.57;;;18.87;;
64291;SDS011;50628;51.008;13.658;2023-05-07T02:23:11;20.37;;;18.10;;
64291;SDS011;50628;51.008;13.658;2023-05-07T02:28:15;20.57;;;17.90;;
64291;SDS011;50628;51.008;13.658;2023-05-07T02:33:46;20.33;;;16.73;;
64291;SDS011;50628;51.008;13.658;2023-05-07T02:38:49;18.83;;;16.83;;
64291;SDS011;50628;51.008;13.658;2023-05-07T02:43:52;19.47;;;17.03;;
64291;SDS011;50628;51.008;13.658;2023-05-07T02:48:54;19.33;;;17.03;;
64291;SDS011;50628;51.008;13.658;2023-05-07T02:53:56;19.23;;;16.43;;
64291;SDS011;50628;51.008;13.658;2023-05-07T02:59:00;20.90;;;17.87;;
64291;SDS011;50628;51.008;13.658;2023-05-07T03:04:07;22.10;;;17.70;;
64291;SDS011;50628;51.008;13.658;2023-05-07T03:09:09;19.90;;;17.10;;
64291;SDS011;50628;51.008;13.658;2023-05-07T03:14:12;20.00;;;17.53;;
64291;SDS011;50628;51.008;13.658;2023-05-07T03:19:14;20.97;;;17.43;;
64291;SDS011;50628;51.008;13.658;2023-05-07T03:24:16;18.10;;;15.67;;
64291;SDS011;50628;51.008;13.658;2023-05-07T03:29:20;20.33;;;16.27;;
64291;SDS011;50628;51.008;13.658;2023-05-07T03:34:21;17.57;;;15.77;;
64291;SDS011;50628;51.008;13.658;2023-05-07T03:39:24;12.90;;;11.27;;
64291;SDS011;50628;51.008;13.658;2023-05-07T03:44:28;12.23;;;10.37;;
64291;SDS011;50628;51.008;13.658;2023-05-07T03:49:31;13.53;;;10.20;;
64291;SDS011;50628;51.008;13.658;2023-05-07T03:54:34;9.17;;;8.13;;
64291;SDS011;50628;51.008;13.658;2023-05-07T03:59:37;10.50;;;8.80;;
64291;SDS011;50628;51.008;13.658;2023-05-07T04:04:40;11.17;;;9.13;;
64291;SDS011;50628;51.008;13.658;2023-05-07T04:09:43;11.40;;;8.70;;
64291;SDS011;50628;51.008;13.658;2023-05-07T04:14:46;14.40;;;9.83;;
64291;SDS011;50628;51.008;13.658;2023-05-07T04:19:49;10.37;;;9.27;;
64291;SDS011;50628;51.008;13.658;2023-05-07T04:24:52;12.73;;;10.07;;
64291;SDS011;50628;51.008;13.658;2023-05-07T04:29:55;13.10;;;9.77;;
64291;SDS011;50628;51.008;13.658;2023-05-07T04:34:59;14.03;;;10.87;;
64291;SDS011;50628;51.008;13.658;2023-05-07T04:40:01;14.10;;;10.63;;
64291;SDS011;50628;51.008;13.658;2023-05-07T04:45:06;16.27;;;11.70;;
64291;SDS011;50628;51.008;13.658;2023-05-07T04:50:12;14.87;;;12.00;;
64291;SDS011;50628;51.008;13.658;2023-05-07T04:55:16;15.00;;;12.70;;
64291;SDS011;50628;51.008;13.658;2023-05-07T05:00:19;16.47;;;13.23;;
64291;SDS011;50628;51.008;13.658;2023-05-07T05:05:24;16.20;;;12.87;;
64291;SDS011;50628;51.008;13.658;2023-05-07T05:10:28;16.43;;;13.40;;
64291;SDS011;50628;51.008;13.658;2023-05-07T05:15:32;15.43;;;12.83;;
64291;SDS011;50628;51.008;13.658;2023-05-07T05:20:34;14.77;;;12.57;;
64291;SDS011;50628;51.008;13.658;2023-05-07T05:25:37;14.77;;;12.20;;
64291;SDS011;50628;51.008;13.658;2023-05-07T05:30:41;15.93;;;12.37;;
64291;SDS011;50628;51.008;13.658;2023-05-07T05:35:43;24.10;;;12.87;;
64291;SDS011;50628;51.008;13.658;2023-05-07T05:40:46;13.60;;;11.00;;
64291;SDS011;50628;51.008;13.658;2023-05-07T05:45:51;15.80;;;12.33;;
64291;SDS011;50628;51.008;13.658;2023-05-07T05:50:53;13.53;;;11.13;;
64291;SDS011;50628;51.008;13.658;2023-05-07T05:55:55;15.53;;;12.00;;
64291;SDS011;50628;51.008;13.658;2023-05-07T06:00:58;14.80;;;12.13;;
64291;SDS011;50628;51.008;13.658;2023-05-07T06:06:03;16.40;;;12.53;;
64291;SDS011;50628;51.008;13.658;2023-05-07T06:11:05;13.13;;;11.73;;
64291;SDS011;50628;51.008;13.658;2023-05-07T06:16:12;14.00;;;11.23;;
64291;SDS011;50628;51.008;13.658;2023-05-07T06:21:15;15.17;;;11.93;;
64291;SDS011;50628;51.008;13.658;2023-05-07T06:26:17;17.27;;;13.50;;
64291;SDS011;50628;51.008;13.658;2023-05-07T06:31:23;13.00;;;10.23;;
64291;SDS011;50628;51.008;13.658;2023-05-07T06:36:43;20.47;;;10.17;;
64291;SDS011;50628;51.008;13.658;2023-05-07T06:41:54;9.17;;;7.93;;
64291;SDS011;50628;51.008;13.658;2023-05-07T06:47:02;9.60;;;7.83;;
64291;SDS011;50628;51.008;13.658;2023-05-07T06:52:05;12.50;;;7.80;;
64291;SDS011;50628;51.008;13.658;2023-05-07T06:57:07;9.87;;;8.17;;
64291;SDS011;50628;51.008;13.658;2023-05-07T07:02:11;8.90;;;6.63;;
64291;SDS011;50628;51.008;13.658;2023-05-07T07:07:13;12.17;;;7.10;;
64291;SDS011;50628;51.008;13.658;2023-05-07T07:12:18;6.93;;;5.67;;
64291;SDS011;50628;51.008;13.658;2023-05-07T07:17:21;7.73;;;6.03;;
64291;SDS011;50628;51.008;13.658;2023-05-07T07:22:23;7.00;;;6.20;;
64291;SDS011;50628;51.008;13.658;2023-05-07T07:27:25;6.40;;;5.83;;
64291;SDS011;50628;51.008;13.658;2023-05-07T07:32:28;7.83;;;6.77;;
64291;SDS011;50628;51.008;13.658;2023-05-07T07:37:34;6.87;;;6.00;;
64291;SDS011;50628;51.008;13.658;2023-05-07T07:42:36;8.83;;;6.97;;
64291;SDS011;50628;51.008;13.658;2023-05-07T07:47:39;7.57;;;6.60;;
64291;SDS011;50628;51.008;13.658;2023-05-07T07:52:42;9.97;;;7.03;;
64291;SDS011;50628;51.008;13.658;2023-05-07T07:57:48;9.37;;;7.00;;
64291;SDS011;50628;51.008;13.658;2023-05-07T08:02:51;8.10;;;6.30;;
64291;SDS011;50628;51.008;13.658;2023-05-07T08:08:02;14.63;;;6.50;;
64291;SDS011;50628;51.008;13.658;2023-05-07T08:13:10;5.77;;;5.00;;
64291;SDS011;50628;51.008;13.658;2023-05-07T08:18:18;12.37;;;4.50;;
64291;SDS011;50628;51.008;13.658;2023-05-07T08:23:35;4.50;;;3.93;;
64291;SDS011;50628;51.008;13.658;2023-05-07T08:28:46;5.37;;;3.80;;
64291;SDS011;50628;51.008;13.658;2023-05-07T08:33:52;5.63;;;3.87;;
64291;SDS011;50628;51.008;13.658;2023-05-07T08:38:57;4.63;;;3.97;;
64291;SDS011;50628;51.008;13.658;2023-05-07T08:43:59;6.50;;;4.40;;
64291;SDS011;50628;51.008;13.658;2023-05-07T08:49:12;5.80;;;4.67;;
64291;SDS011;50628;51.008;13.658;2023-05-07T08:54:26;4.07;;;3.67;;
64291;SDS011;50628;51.008;13.658;2023-05-07T08:59:32;4.73;;;3.50;;
64291;SDS011;50628;51.008;13.658;2023-05-07T09:04:49;3.77;;;3.47;;
64291;SDS011;50628;51.008;13.658;2023-05-07T09:09:51;3.50;;;3.10;;
64291;SDS011;50628;51.008;13.658;2023-05-07T09:15:00;3.40;;;3.00;;
64291;SDS011;50628;51.008;13.658;2023-05-07T09:20:05;6.33;;;3.67;;
64291;SDS011;50628;51.008;13.658;2023-05-07T09:25:32;4.00;;;3.60;;
64291;SDS011;50628;51.008;13.658;2023-05-07T09:30:50;7.00;;;5.03;;
64291;SDS011;50628;51.008;13.658;2023-05-07T09:36:01;4.93;;;4.47;;
64291;SDS011;50628;51.008;13.658;2023-05-07T09:41:08;5.07;;;4.23;;
64291;SDS011;50628;51.008;13.658;2023-05-07T09:46:36;7.43;;;5.00;;
64291;SDS011;50628;51.008;13.658;2023-05-07T09:51:55;7.50;;;6.30;;
64291;SDS011;50628;51.008;13.658;2023-05-07T09:57:09;9.97;;;7.27;;
64291;SDS011;50628;51.008;13.658;2023-05-07T10:02:36;10.37;;;6.33;;
64291;SDS011;50628;51.008;13.658;2023-05-07T10:07:45;6.53;;;5.90;;
64291;SDS011;50628;51.008;13.658;2023-05-07T10:12:54;5.50;;;4.47;;
64291;SDS011;50628;51.008;13.658;2023-05-07T10:18:09;5.30;;;4.60;;
64291;SDS011;50628;51.008;13.658;2023-05-07T10:23:25;6.37;;;4.13;;
64291;SDS011;50628;51.008;13.658;2023-05-07T10:28:36;5.83;;;5.10;;
64291;SDS011;50628;51.008;13.658;2023-05-07T10:33:42;5.70;;;5.10;;
64291;SDS011;50628;51.008;13.658;2023-05-07T10:38:54;6.57;;;5.97;;
64291;SDS011;50628;51.008;13.658;2023-05-07T10:44:05;7.97;;;5.77;;
64291;SDS011;50628;51.008;13.658;2023-05-07T10:49:16;15.87;;;7.87;;
64291;SDS011;50628;51.008;13.658;2023-05-07T10:54:36;6.80;;;6.10;;
64291;SDS011;50628;51.008;13.658;2023-05-07T10:59:49;7.13;;;6.43;;
64291;SDS011;50628;51.008;13.658;2023-05-07T11:05:20;6.13;;;5.53;;
64291;SDS011;50628;51.008;13.658;2023-05-07T11:10:50;6.77;;;5.80;;
64291;SDS011;50628;51.008;13.658;2023-05-07T11:16:17;5.40;;;4.90;;
64291;SDS011;50628;51.008;13.658;2023-05-07T11:21:35;7.10;;;6.40;;
64291;SDS011;50628;51.008;13.658;2023-05-07T11:27:03;6.73;;;6.13;;
64291;SDS011;50628;51.008;13.658;2023-05-07T11:32:08;6.00;;;5.40;;
64291;SDS011;50628;51.008;13.658;2023-05-07T11:37:34;9.27;;;5.80;;
64291;SDS011;50628;51.008;13.658;2023-05-07T11:42:50;5.90;;;5.40;;
64291;SDS011;50628;51.008;13.658;2023-05-07T11:48:07;9.77;;;5.40;;
64291;SDS011;50628;51.008;13.658;2023-05-07T11:53:22;4.73;;;4.30;;
64291;SDS011;50628;51.008;13.658;2023-05-07T11:58:39;5.40;;;4.90;;
64291;SDS011;50628;51.008;13.658;2023-05-07T12:03:59;6.90;;;6.20;;
64291;SDS011;50628;51.008;13.658;2023-05-07T12:09:47;5.53;;;5.03;;
64291;SDS011;50628;51.008;13.658;2023-05-07T12:14:53;6.50;;;5.53;;
64291;SDS011;50628;51.008;13.658;2023-05-07T12:20:26;5.37;;;4.87;;
64291;SDS011;50628;51.008;13.658;2023-05-07T12:25:29;6.43;;;5.77;;
64291;SDS011;50628;51.008;13.658;2023-05-07T12:30:38;7.20;;;5.17;;
64291;SDS011;50628;51.008;13.658;2023-05-07T12:35:58;6.20;;;5.17;;
64291;SDS011;50628;51.008;13.658;2023-05-07T12:41:30;8.07;;;5.33;;
64291;SDS011;50628;51.008;13.658;2023-05-07T12:46:44;6.93;;;5.60;;
64291;SDS011;50628;51.008;13.658;2023-05-07T12:51:56;8.57;;;6.57;;
64291;SDS011;50628;51.008;13.658;2023-05-07T12:57:01;6.17;;;5.60;;
64291;SDS011;50628;51.008;13.658;2023-05-07T13:02:22;9.37;;;8.27;;
64291;SDS011;50628;51.008;13.658;2023-05-07T13:07:52;5.40;;;4.90;;
64291;SDS011;50628;51.008;13.658;2023-05-07T13:13:06;6.13;;;5.03;;
64291;SDS011;50628;51.008;13.658;2023-05-07T13:18:37;5.70;;;5.07;;
64291;SDS011;50628;51.008;13.658;2023-05-07T13:24:07;6.13;;;4.83;;
64291;SDS011;50628;51.008;13.658;2023-05-07T13:29:12;7.87;;;4.80;;
64291;SDS011;50628;51.008;13.658;2023-05-07T13:34:31;5.17;;;4.67;;
64291;SDS011;50628;51.008;13.658;2023-05-07T13:39:39;6.73;;;4.37;;
64291;SDS011;50628;51.008;13.658;2023-05-07T13:44:45;8.10;;;5.23;;
64291;SDS011;50628;51.008;13.658;2023-05-07T13:50:12;6.10;;;5.50;;
64291;SDS011;50628;51.008;13.658;2023-05-07T13:55:23;5.40;;;4.13;;
64291;SDS011;50628;51.008;13.658;2023-05-07T14:00:43;4.83;;;4.43;;
64291;SDS011;50628;51.008;13.658;2023-05-07T14:06:04;4.83;;;4.23;;
64291;SDS011;50628;51.008;13.658;2023-05-07T14:11:25;5.20;;;3.73;;
64291;SDS011;50628;51.008;13.658;2023-05-07T14:16:46;4.73;;;4.07;;
64291;SDS011;50628;51.008;13.658;2023-05-07T14:21:49;5.50;;;4.50;;
64291;SDS011;50628;51.008;13.658;2023-05-07T14:27:06;5.70;;;4.17;;
64291;SDS011;50628;51.008;13.658;2023-05-07T14:32:27;4.40;;;3.67;;
64291;SDS011;50628;51.008;13.658;2023-05-07T14:37:49;3.53;;;3.23;;
64291;SDS011;50628;51.008;13.658;2023-05-07T14:43:00;3.83;;;3.00;;
64291;SDS011;50628;51.008;13.658;2023-05-07T14:48:29;2.70;;;2.50;;
64291;SDS011;50628;51.008;13.658;2023-05-07T14:53:35;2.50;;;2.30;;
64291;SDS011;50628;51.008;13.658;2023-05-07T14:58:37;2.77;;;2.50;;
64291;SDS011;50628;51.008;13.658;2023-05-07T15:03:53;2.23;;;2.03;;
64291;SDS011;50628;51.008;13.658;2023-05-07T15:15:06;6.30;;;4.70;;
64291;SDS011;50628;51.008;13.658;2023-05-07T15:20:56;15.37;;;12.97;;
64291;SDS011;50628;51.008;13.658;2023-05-07T15:26:20;5.57;;;3.93;;
64291;SDS011;50628;51.008;13.658;2023-05-07T15:31:38;3.83;;;3.43;;
64291;SDS011;50628;51.008;13.658;2023-05-07T15:36:40;3.50;;;3.20;;
64291;SDS011;50628;51.008;13.658;2023-05-07T15:42:08;3.60;;;3.30;;
64291;SDS011;50628;51.008;13.658;2023-05-07T15:47:53;4.43;;;4.03;;
64291;SDS011;50628;51.008;13.658;2023-05-07T15:53:32;4.63;;;4.23;;
64291;SDS011;50628;51.008;13.658;2023-05-07T15:58:37;5.20;;;3.90;;
64291;SDS011;50628;51.008;13.658;2023-05-07T16:03:58;6.63;;;4.77;;
64291;SDS011;50628;51.008;13.658;2023-05-07T16:20:52;5.77;;;4.57;;
64291;SDS011;50628;51.008;13.658;2023-05-07T16:26:15;4.87;;;4.20;;
64291;SDS011;50628;51.008;13.658;2023-05-07T16:31:39;7.13;;;3.87;;
64291;SDS011;50628;51.008;13.658;2023-05-07T16:36:41;5.30;;;4.63;;
64291;SDS011;50628;51.008;13.658;2023-05-07T16:47:59;5.27;;;4.60;;
64291;SDS011;50628;51.008;13.658;2023-05-07T16:53:25;6.60;;;4.93;;
64291;SDS011;50628;51.008;13.658;2023-05-07T16:59:36;5.40;;;5.00;;
64291;SDS011;50628;51.008;13.658;2023-05-07T17:04:46;6.00;;;5.10;;
64291;SDS011;50628;51.008;13.658;2023-05-07T17:10:14;7.03;;;5.70;;
64291;SDS011;50628;51.008;13.658;2023-05-07T17:15:47;5.73;;;4.30;;
64291;SDS011;50628;51.008;13.658;2023-05-07T17:21:46;5.97;;;4.63;;
64291;SDS011;50628;51.008;13.658;2023-05-07T17:27:25;4.93;;;4.47;;
64291;SDS011;50628;51.008;13.658;2023-05-07T17:33:13;5.07;;;4.67;;
64291;SDS011;50628;51.008;13.658;2023-05-07T17:39:06;6.70;;;4.53;;
64291;SDS011;50628;51.008;13.658;2023-05-07T17:44:41;6.97;;;4.77;;
64291;SDS011;50628;51.008;13.658;2023-05-07T17:50:24;5.53;;;4.90;;
64291;SDS011;50628;51.008;13.658;2023-05-07T18:01:48;8.80;;;5.10;;
64291;SDS011;50628;51.008;13.658;2023-05-07T18:13:36;5.80;;;4.87;;
64291;SDS011;50628;51.008;13.658;2023-05-07T18:18:54;5.47;;;3.90;;
64291;SDS011;50628;51.008;13.658;2023-05-07T18:24:38;9.60;;;5.27;;
64291;SDS011;50628;51.008;13.658;2023-05-07T18:29:41;5.60;;;5.10;;
64291;SDS011;50628;51.008;13.658;2023-05-07T18:34:43;5.60;;;5.00;;
64291;SDS011;50628;51.008;13.658;2023-05-07T18:39:45;8.77;;;5.63;;
64291;SDS011;50628;51.008;13.658;2023-05-07T18:44:48;5.97;;;5.20;;
64291;SDS011;50628;51.008;13.658;2023-05-07T18:49:50;6.50;;;5.27;;
64291;SDS011;50628;51.008;13.658;2023-05-07T18:54:52;5.37;;;4.87;;
64291;SDS011;50628;51.008;13.658;2023-05-07T18:59:55;5.37;;;4.87;;
64291;SDS011;50628;51.008;13.658;2023-05-07T19:04:57;5.70;;;5.20;;
64291;SDS011;50628;51.008;13.658;2023-05-07T19:09:59;6.37;;;5.13;;
64291;SDS011;50628;51.008;13.658;2023-05-07T19:15:02;5.80;;;5.30;;
64291;SDS011;50628;51.008;13.658;2023-05-07T19:20:05;5.63;;;5.13;;
64291;SDS011;50628;51.008;13.658;2023-05-07T19:25:08;5.43;;;4.73;;
64291;SDS011;50628;51.008;13.658;2023-05-07T19:30:11;7.27;;;6.07;;
64291;SDS011;50628;51.008;13.658;2023-05-07T19:35:14;6.40;;;5.07;;
64291;SDS011;50628;51.008;13.658;2023-05-07T19:40:16;6.07;;;5.47;;
64291;SDS011;50628;51.008;13.658;2023-05-07T19:45:19;5.70;;;5.10;;
64291;SDS011;50628;51.008;13.658;2023-05-07T19:50:21;5.47;;;4.97;;
64291;SDS011;50628;51.008;13.658;2023-05-07T19:55:23;6.33;;;5.73;;
64291;SDS011;50628;51.008;13.658;2023-05-07T20:00:26;6.20;;;5.60;;
64291;SDS011;50628;51.008;13.658;2023-05-07T20:05:31;7.03;;;5.90;;
64291;SDS011;50628;51.008;13.658;2023-05-07T20:10:33;8.57;;;6.03;;
64291;SDS011;50628;51.008;13.658;2023-05-07T20:15:36;6.47;;;5.57;;
64291;SDS011;50628;51.008;13.658;2023-05-07T20:20:38;8.13;;;5.67;;
64291;SDS011;50628;51.008;13.658;2023-05-07T20:25:40;15.00;;;6.80;;
64291;SDS011;50628;51.008;13.658;2023-05-07T20:30:44;7.83;;;6.77;;
64291;SDS011;50628;51.008;13.658;2023-05-07T20:35:46;7.07;;;6.10;;
64291;SDS011;50628;51.008;13.658;2023-05-07T20:40:48;6.43;;;5.83;;
64291;SDS011;50628;51.008;13.658;2023-05-07T20:45:58;7.00;;;6.30;;
64291;SDS011;50628;51.008;13.658;2023-05-07T20:51:00;17.97;;;7.33;;
64291;SDS011;50628;51.008;13.658;2023-05-07T20:56:03;6.80;;;5.60;;
64291;SDS011;50628;51.008;13.658;2023-05-07T21:01:06;7.67;;;5.53;;
64291;SDS011;50628;51.008;13.658;2023-05-07T21:06:08;8.07;;;5.83;;
64291;SDS011;50628;51.008;13.658;2023-05-07T21:11:10;5.60;;;5.10;;
64291;SDS011;50628;51.008;13.658;2023-05-07T21:16:13;7.93;;;5.70;;
64291;SDS011;50628;51.008;13.658;2023-05-07T21:21:15;6.90;;;5.63;;
64291;SDS011;50628;51.008;13.658;2023-05-07T21:26:17;7.30;;;5.57;;
64291;SDS011;50628;51.008;13.658;2023-05-07T21:31:22;6.07;;;5.47;;
64291;SDS011;50628;51.008;13.658;2023-05-07T21:36:24;6.83;;;5.00;;
64291;SDS011;50628;51.008;13.658;2023-05-07T21:41:26;7.73;;;5.00;;
64291;SDS011;50628;51.008;13.658;2023-05-07T21:46:29;5.07;;;4.47;;
64291;SDS011;50628;51.008;13.658;2023-05-07T21:51:31;5.37;;;4.83;;
64291;SDS011;50628;51.008;13.658;2023-05-07T21:56:35;10.27;;;5.40;;
64291;SDS011;50628;51.008;13.658;2023-05-07T22:01:38;5.90;;;4.73;;
64291;SDS011;50628;51.008;13.658;2023-05-07T22:06:40;5.67;;;4.53;;
64291;SDS011;50628;51.008;13.658;2023-05-07T22:11:42;5.87;;;4.17;;
64291;SDS011;50628;51.008;13.658;2023-05-07T22:16:45;4.53;;;3.77;;
64291;SDS011;50628;51.008;13.658;2023-05-07T22:21:47;5.20;;;4.70;;
64291;SDS011;50628;51.008;13.658;2023-05-07T22:26:49;5.30;;;4.80;;
64291;SDS011;50628;51.008;13.658;2023-05-07T22:31:52;5.50;;;4.10;;
64291;SDS011;50628;51.008;13.658;2023-05-07T22:36:54;5.33;;;4.30;;
64291;SDS011;50628;51.008;13.658;2023-05-07T22:41:55;6.37;;;4.57;;
64291;SDS011;50628;51.008;13.658;2023-05-07T22:46:59;5.77;;;4.57;;
64291;SDS011;50628;51.008;13.658;2023-05-07T22:52:00;6.27;;;4.50;;
64291;SDS011;50628;51.008;13.658;2023-05-07T22:57:03;10.13;;;7.30;;
64291;SDS011;50628;51.008;13.658;2023-05-07T23:02:06;7.00;;;4.80;;
64291;SDS011;50628;51.008;13.658;2023-05-07T23:07:08;4.77;;;4.23;;
64291;SDS011;50628;51.008;13.658;2023-05-07T23:12:10;5.60;;;4.70;;
64291;SDS011;50628;51.008;13.658;2023-05-07T23:17:13;5.17;;;4.10;;
64291;SDS011;50628;51.008;13.658;2023-05-07T23:22:15;7.80;;;4.90;;
64291;SDS011;50628;51.008;13.658;2023-05-07T23:27:17;6.13;;;4.63;;
64291;SDS011;50628;51.008;13.658;2023-05-07T23:32:20;6.23;;;4.17;;
64291;SDS011;50628;51.008;13.658;2023-05-07T23:37:22;4.67;;;4.27;;
64291;SDS011;50628;51.008;13.658;2023-05-07T23:42:24;5.87;;;5.23;;
64291;SDS011;50628;51.008;13.658;2023-05-07T23:47:27;5.10;;;4.60;;
64291;SDS011;50628;51.008;13.658;2023-05-07T23:52:29;6.37;;;5.27;;
64291;SDS011;50628;51.008;13.658;2023-05-07T23:57:31;5.93;;;4.60;;
